Weather observations for the past three days for
Albuquerque, Double Eagle II Airport
Imperial (Metric)
Date Time (mdt) Wind (mph) Vis. (mi.) Weather Sky Cond. Temperature (ºF) Relative Humidity Wind Chill (°F) Heat Index (°F) Pressure Precipitation (in)
Air Dwpt 6 hour altimeter (in) sea level (mb) 1 hr 3 hr 6 hr
Max. Min.
04 23:15 W 20 10.00 Fair CLR 62.4 23.4 22% 29.93 0.0
04 22:55 W 13 10.00 Partly Cloudy SCT120 62.6 23 22% 29.93 0.0
04 22:35 W 17 G 21 10.00 Fair CLR 63.5 22.8 21% 29.92 0.0
04 22:15 W 15 10.00 Fair CLR 63.9 22.5 20% 29.92 0.0
04 21:55 W 13 10.00 Fair CLR 64.4 22.3 20% 29.92 0.0
04 21:35 W 9 10.00 Fair CLR 64 23.7 21% 29.92 0.0
04 21:15 W 12 10.00 Fair CLR 65.1 23.4 20% 29.9 0.0
04 20:47 W 16 10.00 Fair CLR 66.2 23 19% 29.9 0.0
04 19:47 W 20 G 28 10.00 Fair CLR 68 21.2 17% 29.89 0.0
04 18:47 W 15 10.00 Partly Cloudy SCT090 69.8 21.2 16% 29.87 0.0
04 17:47 W 21 G 25 10.00 Partly Cloudy and Breezy SCT090 71.6 17.6 13% 29.88 0.0
04 16:47 W 23 G 28 10.00 Fair and Breezy CLR 71.6 10.4 9% 29.89 0.0
04 14:50 SW 17 G 28 10.00 Fair CLR 75.2 12.2 9% 75 29.94 0.0
04 13:50 SW 15 G 25 10.00 Fair CLR 71.6 19.4 14% 29.97 0.0
04 12:50 SW 16 G 22 10.00 Fair CLR 69.8 21.2 16% 30 0.0
04 11:50 SW 16 G 23 10.00 Fair CLR 66.2 24.8 21% 30.02 0.0
04 10:50 SW 13 G 20 10.00 Fair CLR 64.4 21.2 19% 30.03 0.0
04 09:50 W 7 10.00 Fair CLR 62.6 26.6 25% 30.03 0.0
04 08:50 W 10 10.00 Fair CLR 60.8 30.2 31% 30.04 0.0
04 07:50 W 8 10.00 Partly Cloudy SCT120 59 33.8 39% 30.03 0.0
04 06:50 SW 8 10.00 Partly Cloudy SCT120 53.6 35.6 51% 30.02 0.0
04 05:55 Vrbl 3 10.00 Partly Cloudy SCT090 51.8 39.2 62% 30 0.0
04 05:35 N 3 10.00 Overcast OVC090 51.4 39.9 65% 30 0.0
04 05:15 Calm 10.00 Mostly Cloudy BKN090 53.2 38.7 58% 29.99 0.0
04 04:55 SW 8 10.00 Fair CLR 53.8 38.3 56% 29.97 0.0
04 04:35 SW 5 10.00 Fair CLR 51.1 39.6 65% 29.98 0.0
04 04:15 S 5 10.00 Partly Cloudy SCT095 52 40.5 65% 29.98 0.0
04 03:55 S 6 10.00 Partly Cloudy SCT095 51.8 40.6 66% 29.98 0.0
04 03:35 S 8 10.00 Fair CLR 50.5 40.6 69% 29.98 0.0
04 03:15 S 6 10.00 Fair CLR 50.9 40.1 67% 29.98 0.0
04 02:55 S 7 10.00 Fair CLR 52 40.5 65% 29.99 0.0
04 02:35 S 8 10.00 Fair CLR 52.9 40.5 63% 29.99 0.0
04 02:15 SW 9 10.00 Fair CLR 53.6 40.1 60% 30 0.0
04 01:55 SW 9 10.00 Fair CLR 55.4 38.8 54% 30 0.0
04 01:35 SW 12 10.00 Partly Cloudy SCT120 56.5 38.8 52% 30.01 0.0
04 01:15 SW 14 10.00 Mostly Cloudy BKN120 57.4 39.7 52% 30.02 0.0
04 00:55 SW 15 10.00 Mostly Cloudy BKN120 57.4 41 55% 30.02 0.0
04 00:35 SW 13 10.00 Mostly Cloudy BKN110 57.2 38.3 49% 30.03 0.0
04 00:15 SW 12 10.00 Partly Cloudy SCT120 57.7 37.4 47% 30.02 0.0
03 23:55 SW 9 10.00 Mostly Cloudy BKN110 57.9 36 70.9 55.8 44% 30.02 0.0
03 23:35 S 9 10.00 Overcast OVC110 55.9 40.1 55% 30.03 0.0
03 23:15 S 6 10.00 Mostly Cloudy BKN110 56.3 40.1 55% 30.02 0.0
03 22:55 S 5 10.00 Mostly Cloudy BKN120 56.5 40.3 55% 30.03 0.0
03 22:35 SE 5 10.00 Partly Cloudy SCT120 56.5 39.9 54% 30.03 0.0
03 22:15 S 12 10.00 Fair CLR 57.2 40.1 53% 30.03 0.0
03 21:55 S 9 G 18 10.00 Partly Cloudy SCT110 58.3 39.6 50% 30.02 0.0
03 21:35 S 16 10.00 Overcast OVC110 59 39.7 49% 30.02 0.0
03 21:15 S 18 G 22 10.00 Partly Cloudy SCT110 59.5 39 47% 30.01 0.0
03 20:47 SE 14 10.00 Fair CLR 60.8 39.2 45% 30.01 0.0
03 19:47 S 15 G 22 10.00 Partly Cloudy SCT090 66.2 37.4 35% 30 0.0
03 18:47 SE 8 10.00 Partly Cloudy SCT100 69.8 32 25% 29.99 0.0
03 17:47 E 14 G 20 10.00 Fair CLR 71.6 28.4 20% 30 0.0
03 15:47 Vrbl 3 10.00 Fair CLR 69.8 24.8 18% 30.03 0.0
03 14:47 W 3 10.00 Fair CLR 69.8 23 17% 30.07 0.0
03 13:47 S 9 10.00 Fair CLR 66.2 24.8 21% 30.11 0.0
03 12:50 SW 10 G 16 10.00 Fair CLR 66.2 30.2 26% 30.14 0.0
03 11:50 S 9 10.00 Fair CLR 60.8 35.6 39% 30.2 0.0
03 10:50 S 8 10.00 Fair CLR 57.2 37.4 48% 30.22 0.0
03 09:50 SE 3 10.00 Fair CLR 55.4 37.4 51% 30.22 0.0
03 08:47 Calm 10.00 Fair CLR 51.8 37.4 58% 30.23 0.0
03 07:50 Calm 10.00 Fair CLR 48.2 37.4 66% 30.22 0.0
03 06:50 Calm 10.00 Fair CLR 41 37.4 87% 30.21 0.0
03 05:55 Calm 10.00 Fair CLR 41 35.6 81% 30.21 0.0
03 05:35 Calm 10.00 Fair CLR 41.7 36.9 83% 30.21 0.0
03 05:15 Calm 10.00 Fair CLR 41 36.7 85% 30.22 0.0
03 04:55 Calm 10.00 Fair CLR 41.5 37.2 85% 30.22 0.0
03 04:35 Calm 10.00 Fair CLR 41 37 86% 30.22 0.0
03 04:15 Calm 10.00 Fair CLR 40.3 36.5 86% 30.22 0.0
03 03:55 Calm 10.00 Fair CLR 42.3 37.4 83% 30.22 0.0
03 03:35 Calm 10.00 Fair CLR 41.4 36.5 83% 30.22 0.0
03 03:15 SW 5 10.00 Fair CLR 42.4 36.7 80% 40 30.22 0.0
03 02:55 S 3 10.00 Fair CLR 43.2 37.6 81% 30.22 0.0
03 02:35 S 5 10.00 Fair CLR 43.7 37.4 79% 42 30.23 0.0
03 02:15 SW 5 10.00 Fair CLR 43 36.9 79% 41 30.23 0.0
03 01:55 S 8 10.00 Fair CLR 43.9 36.9 76% 40 30.23 0.0
03 01:35 S 3 10.00 Fair CLR 45.7 37.2 72% 30.24 0.0
03 01:15 Calm 10.00 Fair CLR 44.8 37 74% 30.24 0.0
03 00:55 S 8 10.00 Fair CLR 45.9 37.4 72% 42 30.24 0.0
03 00:35 S 6 10.00 Fair CLR 46.9 37.4 70% 45 30.24 0.0
03 00:15 S 7 10.00 Fair CLR 47.5 37.4 68% 45 30.24 0.0
02 23:55 SW 8 10.00 Fair CLR 48.7 37.4 63.9 48.7 65% 46 30.24 0.0
02 23:35 S 10 10.00 Fair CLR 50 37.4 62% 46 30.23 0.0
02 23:15 S 8 10.00 Fair CLR 49.6 37 62% 47 30.23 0.0
02 22:55 S 8 10.00 Fair CLR 50.4 36.3 59% 30.23 0.0
02 22:35 S 8 10.00 Fair CLR 51.1 34.2 53% 30.22 0.0
02 22:15 S 9 10.00 Fair CLR 52 33.6 50% 30.22 0.0
02 21:55 S 10 10.00 Fair CLR 52.7 33.3 48% 30.21 0.0
02 21:35 S 10 10.00 Fair CLR 53.4 33.1 46% 30.21 0.0
02 21:15 S 10 10.00 Fair CLR 54.1 32.9 45% 30.2 0.0
02 20:50 S 13 10.00 Fair CLR 55.4 32 41% 30.19 0.0
02 19:47 S 10 10.00 Fair CLR 59 30.2 34% 30.17 0.0
02 18:50 S 12 10.00 Partly Cloudy SCT085 62.6 28.4 27% 30.16 0.0
02 17:50 SE 8 10.00 Partly Cloudy SCT085 64.4 24.8 22% 30.16 0.0
02 16:50 SE 8 10.00 Fair CLR 64.4 23 21% 30.17 0.0
02 15:47 Vrbl 6 10.00 Fair CLR 64.4 24.8 22% 30.19 0.0
02 14:47 Calm 10.00 Fair CLR 60.8 26.6 27% 30.22 0.0
02 13:47 SE 5 10.00 Mostly Cloudy BKN110 59 32 36% 30.25 0.0
02 12:47 S 3 10.00 Fair CLR 57.2 30.2 36% 30.27 0.0
02 11:47 SE 7 10.00 Fair CLR 55.4 33.8 44% 30.28 0.0
02 10:55 NE 6 10.00 Fair CLR 53.6 33.8 47% 30.29 0.0
02 09:50 NE 9 10.00 Fair CLR 50 35.6 58% 47 30.29 0.0
02 08:50 N 12 10.00 Partly Cloudy SCT070 46.4 35.6 66% 42 30.28 0.0
02 07:50 N 9 10.00 Partly Cloudy SCT120 42.8 35.6 76% 38 30.27 0.0
02 06:50 N 6 10.00 Mostly Cloudy BKN065 41 35.6 81% 38 30.26 0.0
02 05:50 N 9 10.00 Partly Cloudy SCT049 SCT120 41 35.6 81% 36 30.25 0.0
02 05:35 N 6 10.00 Mostly Cloudy SCT049 SCT080 BKN120 41.7 35.6 79% 38 30.25 0.0
02 05:15 N 7 10.00 Overcast OVC110 41.9 35.8 79% 38 30.25 0.0
02 04:55 N 6 10.00 Overcast OVC110 42.1 36 79% 39 30.25 0.0
02 04:35 N 7 10.00 Overcast OVC100 42.3 36.1 79% 38 30.25 0.0
02 04:15 N 6 10.00 Mostly Cloudy BKN100 42.4 36.3 79% 39 30.25 0.0
02 03:55 N 5 10.00 Fair CLR 42.4 36.3 79% 40 30.25 0.0
02 03:35 N 6 10.00 Partly Cloudy SCT036 42.4 36.7 80% 39 30.24 0.0
02 03:15 N 8 10.00 Mostly Cloudy BKN036 BKN120 42.6 37.4 82% 38 30.24 0.0
02 02:55 N 6 10.00 Partly Cloudy SCT036 SCT120 42.4 37.2 82% 39 30.23 0.0
02 02:35 NW 6 10.00 Partly Cloudy SCT036 SCT120 42.6 37 81% 40 30.23 0.0
02 02:15 N 9 10.00 Partly Cloudy SCT110 43 37.2 80% 38 30.23 0.0
02 01:55 N 8 10.00 Overcast OVC110 43.5 37.6 80% 39 30.22 0.0
02 01:35 N 8 10.00 Mostly Cloudy BKN120 43.7 37.4 79% 40 30.23 0.0
02 01:15 NW 3 10.00 Partly Cloudy SCT120 44.6 36.7 74% 30.23 0.0
02 00:55 Calm 10.00 Mostly Cloudy SCT047 BKN120 44.8 35.4 70% 30.23 0.0
02 00:35 Calm 10.00 Mostly Cloudy BKN047 44.8 36 71% 30.24 0.0
02 00:15 Calm 10.00 Mostly Cloudy BKN047 BKN120 44.8 36 71% 30.24 0.0
01 23:55 E 3 10.00 Overcast BKN047 OVC120 44.8 36.1 50.9 44.6 72% 30.24 0.0
01 23:35 SE 7 10.00 Overcast OVC047 44.8 36 71% 41 30.23 0.0
Date Time (mdt) Wind (mph) Vis. (mi.) Weather Sky Cond. Air Dwpt Max. Min. Relative Humidity Wind Chill (°F) Heat Index (°F) altimeter (in) sea level (mb) 1 hr 3 hr 6 hr
6 hour
Temperature (ºF) Pressure Precipitation (in)